Michelle Golding — WDH7930 — position and weather

sailwx.info

Track history (hours):
 
Tides and Currents Weather Stations Pressure Air Temp Water Temp Dewpoint Dewpoint Depression Visibility Wind Speed Wind Dir Waves Ship Positions

Michelle Golding

Owner: GOLDING BARGE LINE, INC, VICKSBURG, MS. More information available from US FCC via Universal Licensing System and Coast Guard Vessel Documentation Center.

Last reported at 2017-Sep-22 01:47 UTC. Time now 2017-Oct-20 16:12 UTC.
Position N 29°56' W 093°06'.
Warning: this ship's position is 28 days out of date.

Length 229 m; draft 2.7 m.

Type: . MMSI: 367652980.

Date/timePositionNaut miles runAvg speedWind from/ knotsBaromVisibWave heightAir tempDewpointWater temp
2017-Sep-22 01:47N 29°56' W 093°06'1 5.0
2017-Sep-22 01:30N 29°56' W 093°08'2 4.6
2017-Sep-22 01:00N 29°57' W 093°10'2 5.0
2017-Sep-22 00:30N 29°59' W 093°12'2 4.7
2017-Sep-22 00:00N 30°01' W 093°14'1 2.5
2017-Sep-21 23:30N 30°02' W 093°15'0 0.2
2017-Sep-21 23:00N 30°02' W 093°15'2 4.7
2017-Sep-21 22:30N 30°04' W 093°16'2 5.0
2017-Sep-21 22:00N 30°06' W 093°18'0 0.6
2017-Sep-21 21:30N 30°06' W 093°18'0 0.0
2017-Sep-21 21:00N 30°06' W 093°18'1 2.4
2017-Sep-21 20:30N 30°05' W 093°20'3 5.6
2017-Sep-21 20:00N 30°04' W 093°22'3 5.4
2017-Sep-21 19:27N 30°04' W 093°26'2 5.4
2017-Sep-21 19:00N 30°04' W 093°28'3 5.4
2017-Sep-21 18:30N 30°04' W 093°31'3 5.4
2017-Sep-21 18:00N 30°04' W 093°35'3 5.3
2017-Sep-21 17:30N 30°04' W 093°38'3 5.3
2017-Sep-21 17:00N 30°04' W 093°41'  
2017-Sep-17 05:08N 29°50' W 093°57'0 0.0
2017-Sep-17 04:49N 29°50' W 093°57'0 0.0
2017-Sep-17 04:05N 29°50' W 093°57'0 0.0
2017-Sep-17 03:47N 29°50' W 093°57'0 0.0
2017-Sep-17 03:30N 29°50' W 093°57'0 0.0
2017-Sep-17 03:00N 29°50' W 093°57'0 0.0
2017-Sep-17 02:30N 29°50' W 093°57'0 0.0
2017-Sep-17 02:00N 29°50' W 093°57'0 0.0
2017-Sep-17 01:30N 29°50' W 093°57'0 0.0
2017-Sep-17 00:58N 29°50' W 093°57'0 0.0
2017-Sep-16 05:20N 29°50' W 093°57'0 0.0
2017-Sep-16 04:54N 29°50' W 093°57'0 0.0
2017-Sep-16 04:29N 29°50' W 093°57'0 0.0
2017-Sep-16 01:27N 29°50' W 093°57'  
Track history (hours):
 
Tides and Currents Weather Stations Pressure Air Temp Water Temp Dewpoint Dewpoint Depression Visibility Wind Speed Wind Dir Waves Ship Positions

Michelle Golding

Owner: GOLDING BARGE LINE, INC, VICKSBURG, MS. More information available from US FCC via Universal Licensing System and Coast Guard Vessel Documentation Center.

Last reported at 2017-Sep-22 01:47 UTC. Time now 2017-Oct-20 16:12 UTC.
Position N 29°56' W 093°06'.
Warning: this ship's position is 28 days out of date.

Length 229 m; draft 2.7 m.

Type: . MMSI: 367652980.

Date/timePositionNaut miles runAvg speedWind from/ knotsBaromVisibWave heightAir tempDewpointWater temp
2017-Sep-22 01:47N 29°56' W 093°06'1 5.0
2017-Sep-22 01:30N 29°56' W 093°08'2 4.6
2017-Sep-22 01:00N 29°57' W 093°10'2 5.0
2017-Sep-22 00:30N 29°59' W 093°12'2 4.7
2017-Sep-22 00:00N 30°01' W 093°14'1 2.5
2017-Sep-21 23:30N 30°02' W 093°15'0 0.2
2017-Sep-21 23:00N 30°02' W 093°15'2 4.7
2017-Sep-21 22:30N 30°04' W 093°16'2 5.0
2017-Sep-21 22:00N 30°06' W 093°18'0 0.6
2017-Sep-21 21:30N 30°06' W 093°18'0 0.0
2017-Sep-21 21:00N 30°06' W 093°18'1 2.4
2017-Sep-21 20:30N 30°05' W 093°20'3 5.6
2017-Sep-21 20:00N 30°04' W 093°22'3 5.4
2017-Sep-21 19:27N 30°04' W 093°26'2 5.4
2017-Sep-21 19:00N 30°04' W 093°28'3 5.4
2017-Sep-21 18:30N 30°04' W 093°31'3 5.4
2017-Sep-21 18:00N 30°04' W 093°35'3 5.3
2017-Sep-21 17:30N 30°04' W 093°38'3 5.3
2017-Sep-21 17:00N 30°04' W 093°41'  
2017-Sep-17 05:08N 29°50' W 093°57'0 0.0
2017-Sep-17 04:49N 29°50' W 093°57'0 0.0
2017-Sep-17 04:05N 29°50' W 093°57'0 0.0
2017-Sep-17 03:47N 29°50' W 093°57'0 0.0
2017-Sep-17 03:30N 29°50' W 093°57'0 0.0
2017-Sep-17 03:00N 29°50' W 093°57'0 0.0
2017-Sep-17 02:30N 29°50' W 093°57'0 0.0
2017-Sep-17 02:00N 29°50' W 093°57'0 0.0
2017-Sep-17 01:30N 29°50' W 093°57'0 0.0
2017-Sep-17 00:58N 29°50' W 093°57'0 0.0
2017-Sep-16 05:20N 29°50' W 093°57'0 0.0
2017-Sep-16 04:54N 29°50' W 093°57'0 0.0
2017-Sep-16 04:29N 29°50' W 093°57'0 0.0
2017-Sep-16 01:27N 29°50' W 093°57'  

Dump ship's entire track history